createdAt,value
2023-04-16T00:01:43.112Z,101880.22
2023-04-16T00:04:11.095Z,101875.53
2023-04-16T00:06:38.366Z,101882.16
2023-04-16T00:09:05.632Z,101886.56
2023-04-16T00:11:33.075Z,101886.59
2023-04-16T00:14:00.351Z,101877.44
2023-04-16T00:16:28.069Z,101883.78
2023-04-16T00:18:55.426Z,101881.53
2023-04-16T00:21:22.847Z,101884.06
2023-04-16T00:23:50.096Z,101881.03
2023-04-16T00:26:17.477Z,101876.31
2023-04-16T00:28:46.281Z,101892.38
2023-04-16T00:31:13.622Z,101884.41
2023-04-16T00:33:41.038Z,101886.59
2023-04-16T00:36:09.500Z,101891.84
2023-04-16T00:38:37.353Z,101890.47
2023-04-16T00:41:04.683Z,101894.84
2023-04-16T00:43:31.895Z,101897.59
2023-04-16T00:45:59.379Z,101885.53
2023-04-16T00:48:32.365Z,101888.28
2023-04-16T00:51:01.630Z,101886.88
2023-04-16T00:53:29.116Z,101885.81
2023-04-16T00:55:57.361Z,101884.97
2023-04-16T00:58:25.656Z,101883.28
2023-04-16T01:00:52.937Z,101879.44
2023-04-16T01:03:20.414Z,101874.50
2023-04-16T01:05:51.761Z,101881.63
2023-04-16T01:08:20.126Z,101884.13
2023-04-16T01:10:47.386Z,101879.19
2023-04-16T01:13:14.938Z,101883.56
2023-04-16T01:15:42.163Z,101878.91
2023-04-16T01:18:20.471Z,101883.28
2023-04-16T01:20:48.976Z,101885.75
2023-04-16T01:23:18.466Z,101889.34
2023-04-16T01:25:46.824Z,101876.94
2023-04-16T01:28:14.114Z,101873.09
2023-04-16T01:30:41.637Z,101873.09
2023-04-16T01:33:31.856Z,101871.75
2023-04-16T01:35:59.282Z,101874.19
2023-04-16T01:38:26.475Z,101877.97
2023-04-16T01:40:58.045Z,101876.66
2023-04-16T01:43:25.705Z,101876.41
2023-04-16T01:46:08.080Z,101876.94
2023-04-16T01:48:35.826Z,101881.03
2023-04-16T01:51:04.879Z,101887.06
2023-04-16T01:53:32.285Z,101890.88
2023-04-16T01:55:59.584Z,101894.94
2023-04-16T01:58:29.642Z,101900.44
2023-04-16T02:00:57.281Z,101897.09
2023-04-16T02:03:25.094Z,101903.19
2023-04-16T02:05:53.449Z,101900.16
2023-04-16T02:08:20.996Z,101903.94
2023-04-16T02:10:49.818Z,101899.66
2023-04-16T02:13:17.488Z,101905.84
2023-04-16T02:15:48.056Z,101913.84
2023-04-16T02:18:17.742Z,101911.38
2023-04-16T02:20:46.614Z,101904.38
2023-04-16T02:23:17.136Z,101905.09
2023-04-16T02:25:46.273Z,101907.41
2023-04-16T02:28:16.467Z,101903.28
2023-04-16T02:30:45.741Z,101911.41
2023-04-16T02:33:14.904Z,101916.81
2023-04-16T02:35:52.227Z,101907.56
2023-04-16T02:38:19.594Z,101906.44
2023-04-16T02:40:46.918Z,101909.53
2023-04-16T02:43:16.297Z,101909.09
2023-04-16T02:45:44.774Z,101898.88
2023-04-16T02:48:12.229Z,101911.88
2023-04-16T02:50:39.432Z,101905.00
2023-04-16T02:53:07.784Z,101905.91
2023-04-16T02:55:35.084Z,101909.53
2023-04-16T02:58:02.700Z,101908.31
2023-04-16T03:00:30.030Z,101909.44
2023-04-16T03:02:57.595Z,101906.41
2023-04-16T03:05:25.110Z,101899.13
2023-04-16T03:07:56.727Z,101900.53
2023-04-16T03:10:24.293Z,101905.44
2023-04-16T03:12:51.881Z,101906.88
2023-04-16T03:15:19.206Z,101901.88
2023-04-16T03:17:46.446Z,101910.59
2023-04-16T03:20:14.648Z,101908.91
2023-04-16T03:22:43.682Z,101911.06
2023-04-16T03:25:11.130Z,101911.31
2023-04-16T03:27:39.789Z,101915.38
2023-04-16T03:30:08.255Z,101907.75
2023-04-16T03:32:37.234Z,101913.25
2023-04-16T03:35:06.301Z,101922.41
2023-04-16T03:37:34.269Z,101914.56
2023-04-16T03:40:01.639Z,101913.03
2023-04-16T03:42:29.602Z,101906.66
2023-04-16T03:44:57.696Z,101902.94
2023-04-16T03:47:24.970Z,101915.34
2023-04-16T03:49:55.166Z,101903.38
2023-04-16T03:52:23.031Z,101898.50
2023-04-16T03:54:50.341Z,101899.75
2023-04-16T03:57:27.080Z,101898.47
2023-04-16T03:59:58.461Z,101908.03
2023-04-16T04:02:28.521Z,101907.06
2023-04-16T04:04:55.939Z,101917.00
2023-04-16T04:07:23.761Z,101913.75
2023-04-16T04:09:52.539Z,101918.53
2023-04-16T04:12:19.818Z,101915.16
2023-04-16T04:14:47.881Z,101917.59
2023-04-16T04:17:15.773Z,101911.59
2023-04-16T04:19:54.249Z,101918.66
2023-04-16T04:22:28.561Z,101925.28
2023-04-16T04:24:55.833Z,101932.78
2023-04-16T04:27:23.400Z,101932.84
2023-04-16T04:29:50.726Z,101936.84
2023-04-16T04:32:17.978Z,101928.03
2023-04-16T04:34:46.295Z,101930.09
2023-04-16T04:37:13.588Z,101932.94
2023-04-16T04:39:41.088Z,101928.84
2023-04-16T04:42:08.665Z,101930.75
2023-04-16T04:44:35.981Z,101933.19
2023-04-16T04:47:03.139Z,101929.56
2023-04-16T04:49:31.207Z,101929.53
2023-04-16T04:51:58.429Z,101943.31
2023-04-16T04:54:25.995Z,101942.84
2023-04-16T04:56:54.232Z,101941.00
2023-04-16T04:59:21.750Z,101943.38
2023-04-16T05:01:49.861Z,101941.84
2023-04-16T05:04:17.633Z,101941.31
2023-04-16T05:06:44.900Z,101942.38
2023-04-16T05:09:12.591Z,101946.47
2023-04-16T05:11:42.414Z,101939.44
2023-04-16T05:14:09.707Z,101953.31
2023-04-16T05:16:37.473Z,101953.94
2023-04-16T05:19:05.196Z,101960.69
2023-04-16T05:21:32.561Z,101965.16
2023-04-16T05:24:00.105Z,101961.41
2023-04-16T05:26:27.334Z,101965.16
2023-04-16T05:28:54.623Z,101967.72
2023-04-16T05:31:22.215Z,101974.22
2023-04-16T05:33:49.518Z,101976.28
2023-04-16T05:36:17.003Z,101979.97
2023-04-16T05:38:44.205Z,101973.81
2023-04-16T05:41:11.386Z,101976.25
2023-04-16T05:43:38.568Z,101985.88
2023-04-16T05:46:05.885Z,101987.06
2023-04-16T05:48:33.142Z,101990.38
2023-04-16T05:51:02.190Z,101997.59
2023-04-16T05:53:29.471Z,101999.38
2023-04-16T05:55:56.843Z,101988.59
2023-04-16T05:58:24.106Z,101989.81
2023-04-16T06:00:51.576Z,101991.97
2023-04-16T06:03:19.003Z,101991.59
2023-04-16T06:05:46.400Z,102003.75
2023-04-16T06:08:13.712Z,102001.88
2023-04-16T06:10:40.991Z,102006.28
2023-04-16T06:13:08.284Z,101999.63
2023-04-16T06:15:35.801Z,101995.50
2023-04-16T06:18:03.036Z,102001.81
2023-04-16T06:20:30.640Z,101998.97
2023-04-16T06:22:58.151Z,101990.34
2023-04-16T06:25:25.476Z,101993.91
2023-04-16T06:27:52.751Z,101995.41
2023-04-16T06:30:20.104Z,102001.72
2023-04-16T06:32:48.026Z,102000.22
2023-04-16T06:35:15.450Z,101996.91
2023-04-16T06:37:42.691Z,101996.91
2023-04-16T06:40:10.412Z,101996.59
2023-04-16T06:42:37.680Z,101998.38
2023-04-16T06:45:05.378Z,101998.13
2023-04-16T06:47:33.050Z,101998.16
2023-04-16T06:50:00.562Z,101997.72
2023-04-16T06:52:29.160Z,102001.69
2023-04-16T06:54:56.773Z,102010.91
2023-04-16T06:57:24.137Z,101998.16
2023-04-16T06:59:51.360Z,102000.81
2023-04-16T07:02:18.890Z,102003.06
2023-04-16T07:04:46.279Z,102009.44
2023-04-16T07:07:13.538Z,102020.44
2023-04-16T07:09:40.728Z,102012.00
2023-04-16T07:12:08.523Z,102018.44
2023-04-16T07:14:35.766Z,102011.72
2023-04-16T07:17:03.023Z,102021.00
2023-04-16T07:19:32.586Z,102017.59
2023-04-16T07:22:00.317Z,102013.09
2023-04-16T07:24:27.670Z,102020.25
2023-04-16T07:26:54.935Z,102019.09
2023-04-16T07:29:22.884Z,102020.84
2023-04-16T07:31:50.320Z,102018.03
2023-04-16T07:34:17.843Z,102023.13
2023-04-16T07:36:45.239Z,102023.34
2023-04-16T07:39:13.261Z,102018.38
2023-04-16T07:41:41.335Z,102025.59
2023-04-16T07:44:10.484Z,102019.31
2023-04-16T07:46:46.296Z,102016.81
2023-04-16T07:49:15.084Z,102014.06
2023-04-16T07:51:42.458Z,102021.78
2023-04-16T07:54:10.673Z,102025.00
2023-04-16T07:56:38.027Z,102020.25
2023-04-16T07:59:21.074Z,102025.22
2023-04-16T08:01:50.604Z,102022.47
2023-04-16T08:04:23.119Z,102024.63
2023-04-16T08:06:51.684Z,102033.28
2023-04-16T08:09:20.487Z,102034.22
2023-04-16T08:11:49.256Z,102035.91
2023-04-16T08:14:17.542Z,102035.72
2023-04-16T08:16:44.940Z,102036.91
2023-04-16T08:19:12.567Z,102033.97
2023-04-16T08:21:40.111Z,102042.97
2023-04-16T08:24:07.355Z,102038.06
2023-04-16T08:26:34.526Z,102031.28
2023-04-16T08:29:01.912Z,102036.03
2023-04-16T08:31:29.549Z,102040.16
2023-04-16T08:33:56.898Z,102037.50
2023-04-16T08:36:24.190Z,102034.44
2023-04-16T08:38:52.299Z,102038.91
2023-04-16T08:41:21.974Z,102046.06
2023-04-16T08:43:51.133Z,102047.66
2023-04-16T08:46:20.910Z,102048.50
2023-04-16T08:48:49.860Z,102047.97
2023-04-16T08:51:17.443Z,102043.63
2023-04-16T08:53:54.312Z,102036.22
2023-04-16T08:56:23.690Z,102039.53
2023-04-16T08:58:51.581Z,102044.19
2023-04-16T09:01:19.164Z,102046.91
2023-04-16T09:03:49.555Z,102036.78
2023-04-16T09:06:18.364Z,102043.91
2023-04-16T09:08:46.574Z,102048.03
2023-04-16T09:11:14.431Z,102046.94
2023-04-16T09:13:41.655Z,102057.66
2023-04-16T09:16:09.509Z,102053.00
2023-04-16T09:18:36.858Z,102057.66
2023-04-16T09:21:05.172Z,102047.50
2023-04-16T09:23:32.511Z,102056.03
2023-04-16T09:25:59.838Z,102048.84
2023-04-16T09:28:48.657Z,102047.97
2023-04-16T09:31:17.870Z,102046.84
2023-04-16T09:34:02.463Z,102044.00
2023-04-16T09:36:30.114Z,102069.00
2023-04-16T09:38:58.133Z,102052.53
2023-04-16T09:41:28.500Z,102063.84
2023-04-16T09:44:00.511Z,102069.59
2023-04-16T09:46:37.649Z,102052.78
2023-04-16T09:49:15.494Z,102051.84
2023-04-16T09:51:44.247Z,102065.59
2023-04-16T09:54:11.598Z,102067.00
2023-04-16T09:56:43.458Z,102061.69
2023-04-16T09:59:18.140Z,102067.09
2023-04-16T10:01:47.190Z,102065.59
2023-04-16T10:04:14.548Z,102066.56
2023-04-16T10:06:41.820Z,102056.34
2023-04-16T10:09:10.772Z,102049.25
2023-04-16T10:11:38.444Z,102045.72
2023-04-16T10:14:05.755Z,102042.06
2023-04-16T10:16:33.174Z,102047.03
2023-04-16T10:19:00.472Z,102032.69
2023-04-16T10:21:33.689Z,102044.28
2023-04-16T10:24:02.330Z,102043.91
2023-04-16T10:26:30.690Z,102049.44
2023-04-16T10:28:59.413Z,102051.63
2023-04-16T10:31:27.487Z,102048.25
2023-04-16T10:33:55.339Z,102055.78
2023-04-16T10:36:29.196Z,102047.00
2023-04-16T10:38:58.593Z,102046.72
2023-04-16T10:41:26.822Z,102048.38
2023-04-16T10:44:12.777Z,102052.50
2023-04-16T10:46:42.577Z,102041.31
2023-04-16T10:49:20.441Z,102047.56
2023-04-16T10:51:58.669Z,102041.66
2023-04-16T10:54:28.182Z,102050.44
2023-04-16T10:57:01.224Z,102048.84
2023-04-16T10:59:39.790Z,102046.97
2023-04-16T11:02:09.746Z,102038.88
2023-04-16T11:04:38.796Z,102035.25
2023-04-16T11:07:18.352Z,102041.69
2023-04-16T11:10:04.044Z,102043.88
2023-04-16T11:12:42.106Z,102045.34
2023-04-16T11:15:11.448Z,102036.06
2023-04-16T11:17:40.819Z,102039.00
2023-04-16T11:20:19.488Z,102033.19
2023-04-16T11:23:10.800Z,102025.59
2023-04-16T11:25:38.315Z,102026.50
2023-04-16T11:28:05.539Z,102022.72
2023-04-16T11:30:35.043Z,102020.34
2023-04-16T11:33:08.035Z,102026.00
2023-04-16T11:35:35.995Z,102018.78
2023-04-16T11:38:04.112Z,102017.91
2023-04-16T11:40:31.898Z,102018.69
2023-04-16T11:43:04.073Z,102015.69
2023-04-16T11:45:31.485Z,102015.09
2023-04-16T11:47:58.903Z,102008.16
2023-04-16T11:50:28.153Z,102007.81
2023-04-16T11:52:57.411Z,102011.13
2023-04-16T11:55:24.880Z,101996.66
2023-04-16T11:57:52.799Z,101996.63
2023-04-16T12:00:24.703Z,102011.19
2023-04-16T12:02:54.251Z,102002.53
2023-04-16T12:05:32.535Z,102001.88
2023-04-16T12:08:01.698Z,102002.84
2023-04-16T12:10:29.732Z,102007.16
2023-04-16T12:13:14.662Z,102004.25
2023-04-16T12:15:47.067Z,101991.81
2023-04-16T12:18:16.164Z,102003.69
2023-04-16T12:20:44.287Z,101997.44
2023-04-16T12:23:29.188Z,101979.28
2023-04-16T12:25:59.818Z,101987.50
2023-04-16T12:28:35.891Z,102012.31
2023-04-16T12:31:03.556Z,101999.06
2023-04-16T12:33:31.437Z,101990.50
2023-04-16T12:35:58.793Z,101987.63
2023-04-16T12:38:27.016Z,101987.22
2023-04-16T12:40:57.159Z,101984.47
2023-04-16T12:43:25.363Z,101997.31
2023-04-16T12:45:52.896Z,101984.19
2023-04-16T12:48:20.320Z,101986.84
2023-04-16T12:50:47.619Z,101977.75
2023-04-16T12:53:14.880Z,101974.72
2023-04-16T12:55:42.536Z,101982.06
2023-04-16T12:58:12.461Z,101975.34
2023-04-16T13:00:40.408Z,101977.59
2023-04-16T13:03:09.451Z,101962.00
2023-04-16T13:05:36.881Z,101972.59
2023-04-16T13:08:04.197Z,101971.03
2023-04-16T13:10:31.381Z,101958.03
2023-04-16T13:12:58.676Z,101964.38
2023-04-16T13:15:25.863Z,101954.28
2023-04-16T13:17:53.172Z,101953.19
2023-04-16T13:20:22.488Z,101951.69
2023-04-16T13:22:51.424Z,101971.31
2023-04-16T13:25:18.792Z,101959.59
2023-04-16T13:27:46.063Z,101956.31
2023-04-16T13:30:13.712Z,101935.78
2023-04-16T13:32:41.181Z,101947.78
2023-04-16T13:35:10.758Z,101958.38
2023-04-16T13:37:38.293Z,101940.72
2023-04-16T13:40:06.688Z,101947.41
2023-04-16T13:42:33.976Z,101951.19
2023-04-16T13:45:01.471Z,101927.56
2023-04-16T13:47:28.734Z,101935.22
2023-04-16T13:49:56.084Z,101932.81
2023-04-16T13:52:23.306Z,101935.03
2023-04-16T13:54:50.861Z,101921.56
2023-04-16T13:57:21.012Z,101926.84
2023-04-16T13:59:49.834Z,101924.09
2023-04-16T14:02:17.419Z,101934.19
2023-04-16T14:04:44.853Z,101923.97
2023-04-16T14:07:12.779Z,101924.53
2023-04-16T14:09:40.139Z,101923.59
2023-04-16T14:12:07.533Z,101928.25
2023-04-16T14:14:35.217Z,101919.06
2023-04-16T14:17:03.387Z,101918.53
2023-04-16T14:19:30.845Z,101910.03
2023-04-16T14:21:58.176Z,101921.78
2023-04-16T14:24:25.907Z,101922.88
2023-04-16T14:26:53.189Z,101927.75
2023-04-16T14:29:20.502Z,101923.53
2023-04-16T14:31:48.155Z,101922.50
2023-04-16T14:34:15.536Z,101925.91
2023-04-16T14:36:43.294Z,101914.56
2023-04-16T14:39:11.348Z,101920.78
2023-04-16T14:41:38.864Z,101920.16
2023-04-16T14:44:06.866Z,101905.13
2023-04-16T14:46:34.376Z,101919.34
2023-04-16T14:49:01.792Z,101912.78
2023-04-16T14:51:29.214Z,101907.00
2023-04-16T14:53:56.789Z,101905.44
2023-04-16T14:56:24.071Z,101909.50
2023-04-16T14:58:51.502Z,101899.81
2023-04-16T15:01:18.862Z,101912.88
2023-04-16T15:03:46.237Z,101903.19
2023-04-16T15:06:14.510Z,101904.66
2023-04-16T15:08:42.039Z,101912.22
2023-04-16T15:11:09.265Z,101898.06
2023-04-16T15:13:36.652Z,101900.47
2023-04-16T15:16:06.770Z,101894.59
2023-04-16T15:18:33.989Z,101896.78
2023-04-16T15:21:01.196Z,101904.03
2023-04-16T15:23:28.727Z,101912.78
2023-04-16T15:25:55.955Z,101904.16
2023-04-16T15:28:24.258Z,101884.84
2023-04-16T15:30:52.400Z,101893.81
2023-04-16T15:33:22.721Z,101897.53
2023-04-16T15:35:51.617Z,101894.69
2023-04-16T15:38:21.290Z,101903.19
2023-04-16T15:40:49.098Z,101892.91
2023-04-16T15:43:16.622Z,101882.28
2023-04-16T15:45:43.814Z,101902.63
2023-04-16T15:48:11.094Z,101891.69
2023-04-16T15:50:38.573Z,101901.19
2023-04-16T15:53:06.027Z,101890.34
2023-04-16T15:55:33.363Z,101882.03
2023-04-16T15:58:00.733Z,101890.25
2023-04-16T16:00:28.051Z,101886.22
2023-04-16T16:02:55.554Z,101887.38
2023-04-16T16:05:23.020Z,101888.06
2023-04-16T16:07:50.439Z,101883.72
2023-04-16T16:10:17.787Z,101890.59
2023-04-16T16:12:46.533Z,101891.25
2023-04-16T16:15:13.801Z,101892.50
2023-04-16T16:17:41.242Z,101892.41
2023-04-16T16:20:10.533Z,101894.94
2023-04-16T16:22:38.220Z,101890.66
2023-04-16T16:25:06.030Z,101888.53
2023-04-16T16:27:33.483Z,101889.63
2023-04-16T16:30:01.479Z,101878.16
2023-04-16T16:32:28.790Z,101875.16
2023-04-16T16:34:56.220Z,101882.94
2023-04-16T16:37:23.398Z,101877.66
2023-04-16T16:39:50.783Z,101874.63
2023-04-16T16:42:18.924Z,101876.84
2023-04-16T16:44:49.542Z,101883.13
2023-04-16T16:47:16.923Z,101875.78
2023-04-16T16:49:44.912Z,101875.66
2023-04-16T16:52:12.139Z,101872.16
2023-04-16T16:54:39.488Z,101871.38
2023-04-16T16:57:07.064Z,101897.34
2023-04-16T16:59:34.428Z,101890.59
2023-04-16T17:02:03.123Z,101884.22
2023-04-16T17:04:30.608Z,101897.06
2023-04-16T17:06:57.946Z,101895.56
2023-04-16T17:09:25.648Z,101885.72
2023-04-16T17:11:53.013Z,101885.50
2023-04-16T17:14:20.377Z,101880.94
2023-04-16T17:16:49.954Z,101884.41
2023-04-16T17:19:17.913Z,101879.38
2023-04-16T17:21:45.589Z,101890.75
2023-04-16T17:24:13.175Z,101897.63
2023-04-16T17:26:41.140Z,101886.34
2023-04-16T17:29:08.399Z,101897.75
2023-04-16T17:31:35.884Z,101894.22
2023-04-16T17:34:05.870Z,101886.91
2023-04-16T17:36:33.209Z,101886.69
2023-04-16T17:39:00.590Z,101888.56
2023-04-16T17:41:28.388Z,101880.53
2023-04-16T17:43:55.600Z,101897.91
2023-04-16T17:46:22.972Z,101885.97
2023-04-16T17:48:50.246Z,101889.38
2023-04-16T17:51:17.497Z,101890.41
2023-04-16T17:53:44.885Z,101893.59
2023-04-16T17:56:13.073Z,101901.38
2023-04-16T17:58:40.428Z,101898.72
2023-04-16T18:01:07.798Z,101903.97
2023-04-16T18:03:35.745Z,101903.63
2023-04-16T18:06:03.461Z,101896.94
2023-04-16T18:08:30.776Z,101892.16
2023-04-16T18:10:58.083Z,101898.69
2023-04-16T18:13:25.322Z,101904.59
2023-04-16T18:15:53.691Z,101900.00
2023-04-16T18:18:21.502Z,101904.47
2023-04-16T18:20:48.809Z,101909.81
2023-04-16T18:23:16.348Z,101911.13
2023-04-16T18:25:44.582Z,101912.66
2023-04-16T18:28:14.304Z,101918.81
2023-04-16T18:30:42.571Z,101918.81
2023-04-16T18:33:38.859Z,101916.47
2023-04-16T18:36:04.745Z,101914.22
2023-04-16T18:38:32.349Z,101914.00
2023-04-16T18:40:59.653Z,101918.41
2023-04-16T18:43:26.969Z,101918.19
2023-04-16T18:45:54.383Z,101919.34
2023-04-16T18:48:21.624Z,101928.97
2023-04-16T18:50:48.887Z,101924.16
2023-04-16T18:53:16.166Z,101921.09
2023-04-16T18:55:43.355Z,101922.00
2023-04-16T18:58:10.956Z,101919.31
2023-04-16T19:00:38.267Z,101930.88
2023-04-16T19:03:07.123Z,101932.34
2023-04-16T19:05:34.877Z,101933.13
2023-04-16T19:08:02.165Z,101929.69
2023-04-16T19:10:29.654Z,101932.78
2023-04-16T19:12:57.263Z,101927.44
2023-04-16T19:15:24.620Z,101937.13
2023-04-16T19:17:52.444Z,101934.53
2023-04-16T19:20:20.510Z,101942.97
2023-04-16T19:22:48.346Z,101934.97
2023-04-16T19:25:15.778Z,101939.78
2023-04-16T19:27:43.273Z,101941.47
2023-04-16T19:30:10.903Z,101943.59
2023-04-16T19:32:38.395Z,101948.28
2023-04-16T19:35:06.180Z,101941.25
2023-04-16T19:37:33.529Z,101942.56
2023-04-16T19:40:02.047Z,101949.75
2023-04-16T19:42:29.459Z,101950.25
2023-04-16T19:44:56.814Z,101949.75
2023-04-16T19:47:24.113Z,101958.78
2023-04-16T19:49:51.599Z,101953.97
2023-04-16T19:52:18.863Z,101956.94
2023-04-16T19:54:46.232Z,101961.41
2023-04-16T19:57:14.033Z,101962.03
2023-04-16T19:59:41.336Z,101954.09
2023-04-16T20:02:08.722Z,101954.00
2023-04-16T20:04:36.444Z,101959.22
2023-04-16T20:07:04.325Z,101966.41
2023-04-16T20:09:31.692Z,101965.72
2023-04-16T20:11:59.523Z,101960.09
2023-04-16T20:14:26.920Z,101960.88
2023-04-16T20:16:54.520Z,101964.47
2023-04-16T20:19:22.121Z,101960.81
2023-04-16T20:21:49.548Z,101961.91
2023-04-16T20:24:17.096Z,101962.53
2023-04-16T20:26:44.472Z,101962.31
2023-04-16T20:29:12.347Z,101961.00
2023-04-16T20:31:42.838Z,101966.53
2023-04-16T20:34:10.262Z,101966.31
2023-04-16T20:36:38.173Z,101972.16
2023-04-16T20:39:07.327Z,101967.53
2023-04-16T20:41:34.666Z,101964.78
2023-04-16T20:44:05.892Z,101968.25
2023-04-16T20:46:36.316Z,101961.25
2023-04-16T20:49:03.757Z,101960.09
2023-04-16T20:51:31.554Z,101972.44
2023-04-16T20:53:59.010Z,101964.16
2023-04-16T20:56:26.257Z,101964.78
2023-04-16T20:58:54.010Z,101958.16
2023-04-16T21:01:21.203Z,101972.66
2023-04-16T21:03:48.839Z,101967.63
2023-04-16T21:06:17.951Z,101968.06
2023-04-16T21:08:45.476Z,101971.00
2023-04-16T21:11:13.157Z,101962.09
2023-04-16T21:13:40.478Z,101963.09
2023-04-16T21:16:09.880Z,101960.94
2023-04-16T21:18:37.381Z,101953.34
2023-04-16T21:21:04.814Z,101954.66
2023-04-16T21:23:32.181Z,101957.28
2023-04-16T21:25:59.425Z,101948.66
2023-04-16T21:28:26.617Z,101958.09
2023-04-16T21:30:54.060Z,101945.34
2023-04-16T21:33:21.373Z,101954.72
2023-04-16T21:35:52.471Z,101950.91
2023-04-16T21:38:20.932Z,101949.63
2023-04-16T21:40:50.764Z,101946.47
2023-04-16T21:43:18.043Z,101953.84
2023-04-16T21:45:45.365Z,101951.25
2023-04-16T21:48:12.619Z,101953.38
2023-04-16T21:50:39.996Z,101944.38
2023-04-16T21:53:07.402Z,101956.59
2023-04-16T21:55:34.873Z,101947.59
2023-04-16T21:58:02.978Z,101947.06
2023-04-16T22:00:30.326Z,101944.59
2023-04-16T22:03:00.096Z,101954.72
2023-04-16T22:05:29.289Z,101951.63
2023-04-16T22:07:56.745Z,101951.00
2023-04-16T22:10:24.000Z,101948.75
2023-04-16T22:12:54.840Z,101953.72
2023-04-16T22:15:22.124Z,101945.81
2023-04-16T22:17:49.481Z,101954.09
2023-04-16T22:20:17.097Z,101946.81
2023-04-16T22:22:44.376Z,101949.41
2023-04-16T22:25:11.831Z,101950.41
2023-04-16T22:27:39.579Z,101947.75
2023-04-16T22:30:08.324Z,101941.06
2023-04-16T22:32:35.670Z,101945.66
2023-04-16T22:35:03.313Z,101944.13
2023-04-16T22:37:30.748Z,101941.88
2023-04-16T22:39:58.202Z,101938.25
2023-04-16T22:42:25.478Z,101945.22
2023-04-16T22:44:54.267Z,101947.59
2023-04-16T22:47:21.973Z,101943.66
2023-04-16T22:49:49.330Z,101947.00
2023-04-16T22:52:16.569Z,101941.59
2023-04-16T22:54:43.907Z,101941.44
2023-04-16T22:57:11.095Z,101943.84
2023-04-16T22:59:38.349Z,101944.19
2023-04-16T23:02:05.938Z,101948.28
2023-04-16T23:04:33.196Z,101949.44
2023-04-16T23:07:00.846Z,101946.81
2023-04-16T23:09:28.042Z,101948.28
2023-04-16T23:11:55.858Z,101947.25
2023-04-16T23:14:23.127Z,101952.41
2023-04-16T23:16:50.273Z,101952.75
2023-04-16T23:19:17.503Z,101951.16
2023-04-16T23:21:44.773Z,101955.09
2023-04-16T23:24:12.175Z,101946.66
2023-04-16T23:26:39.397Z,101947.69
2023-04-16T23:29:06.776Z,101955.50
2023-04-16T23:31:34.122Z,101949.53
2023-04-16T23:34:01.425Z,101951.22
2023-04-16T23:36:28.847Z,101949.28
2023-04-16T23:38:56.077Z,101953.53
2023-04-16T23:41:23.741Z,101952.78
2023-04-16T23:43:51.079Z,101959.09
2023-04-16T23:46:18.349Z,101948.69
2023-04-16T23:48:46.008Z,101956.44
2023-04-16T23:51:17.951Z,101954.81
2023-04-16T23:53:45.193Z,101955.38
2023-04-16T23:56:13.234Z,101949.13
2023-04-16T23:58:40.740Z,101946.69
